sensor_id;sensor_type;location;lat;lon;timestamp;pressure;altitude;pressure_sealevel;temperature;humidity
42621;BME280;28252;53.336;-6.298;2024-01-16T00:00:16;100817.91;;;18.59;84.90
42621;BME280;28252;53.336;-6.298;2024-01-16T00:00:49;100817.03;;;18.59;83.03
42621;BME280;28252;53.336;-6.298;2024-01-16T00:01:20;100816.88;;;18.60;83.22
42621;BME280;28252;53.336;-6.298;2024-01-16T00:01:51;100811.50;;;18.60;84.61
42621;BME280;28252;53.336;-6.298;2024-01-16T00:02:25;100813.34;;;18.60;81.21
42621;BME280;28252;53.336;-6.298;2024-01-16T00:03:01;100807.13;;;18.59;83.08
42621;BME280;28252;53.336;-6.298;2024-01-16T00:03:34;100810.66;;;18.60;85.56
42621;BME280;28252;53.336;-6.298;2024-01-16T00:04:06;100807.97;;;18.60;81.38
42621;BME280;28252;53.336;-6.298;2024-01-16T00:04:43;100806.94;;;18.61;82.49
42621;BME280;28252;53.336;-6.298;2024-01-16T00:05:16;100806.25;;;18.59;82.92
42621;BME280;28252;53.336;-6.298;2024-01-16T00:05:50;100808.94;;;18.59;80.96
42621;BME280;28252;53.336;-6.298;2024-01-16T00:06:23;100805.25;;;18.60;81.23
42621;BME280;28252;53.336;-6.298;2024-01-16T00:06:57;100800.84;;;18.59;83.14
42621;BME280;28252;53.336;-6.298;2024-01-16T00:07:33;100799.03;;;18.59;81.29
42621;BME280;28252;53.336;-6.298;2024-01-16T00:08:10;100802.56;;;18.60;83.08
42621;BME280;28252;53.336;-6.298;2024-01-16T00:08:46;100797.31;;;18.58;81.14
42621;BME280;28252;53.336;-6.298;2024-01-16T00:09:17;100801.72;;;18.59;82.45
42621;BME280;28252;53.336;-6.298;2024-01-16T00:09:51;100797.16;;;18.60;83.47
42621;BME280;28252;53.336;-6.298;2024-01-16T00:10:24;100798.16;;;18.59;83.89
42621;BME280;28252;53.336;-6.298;2024-01-16T00:11:01;100801.88;;;18.58;81.52
42621;BME280;28252;53.336;-6.298;2024-01-16T00:11:39;100799.19;;;18.58;81.29
42621;BME280;28252;53.336;-6.298;2024-01-16T00:12:10;100800.84;;;18.59;82.49
42621;BME280;28252;53.336;-6.298;2024-01-16T00:12:41;100801.88;;;18.58;81.38
42621;BME280;28252;53.336;-6.298;2024-01-16T00:13:15;100798.31;;;18.57;81.08
42621;BME280;28252;53.336;-6.298;2024-01-16T00:13:49;100797.47;;;18.57;83.26
42621;BME280;28252;53.336;-6.298;2024-01-16T00:14:22;100794.78;;;18.57;82.07
42621;BME280;28252;53.336;-6.298;2024-01-16T00:14:58;100792.06;;;18.57;83.99
42621;BME280;28252;53.336;-6.298;2024-01-16T00:15:29;100796.63;;;18.56;82.70
42621;BME280;28252;53.336;-6.298;2024-01-16T00:16:04;100795.75;;;18.56;83.60
42621;BME280;28252;53.336;-6.298;2024-01-16T00:16:46;100803.69;;;18.57;82.41
42621;BME280;28252;53.336;-6.298;2024-01-16T00:17:18;100786.69;;;18.57;81.63
42621;BME280;28252;53.336;-6.298;2024-01-16T00:17:54;100788.69;;;18.55;82.98
42621;BME280;28252;53.336;-6.298;2024-01-16T00:18:25;100794.78;;;18.57;83.69
42621;BME280;28252;53.336;-6.298;2024-01-16T00:18:56;100786.00;;;18.55;82.60
42621;BME280;28252;53.336;-6.298;2024-01-16T00:19:32;100787.84;;;18.54;82.07
42621;BME280;28252;53.336;-6.298;2024-01-16T00:20:10;100791.25;;;18.56;83.71
42621;BME280;28252;53.336;-6.298;2024-01-16T00:20:44;100786.16;;;18.53;81.41
42621;BME280;28252;53.336;-6.298;2024-01-16T00:21:15;100790.38;;;18.56;83.81
42621;BME280;28252;53.336;-6.298;2024-01-16T00:21:47;100784.28;;;18.54;81.12
42621;BME280;28252;53.336;-6.298;2024-01-16T00:22:20;100789.53;;;18.55;82.97
42621;BME280;28252;53.336;-6.298;2024-01-16T00:22:56;100782.63;;;18.53;83.65
42621;BME280;28252;53.336;-6.298;2024-01-16T00:23:28;100785.31;;;18.53;81.32
42621;BME280;28252;53.336;-6.298;2024-01-16T00:24:05;100780.75;;;18.53;81.83
42621;BME280;28252;53.336;-6.298;2024-01-16T00:24:39;100779.06;;;18.52;81.97
42621;BME280;28252;53.336;-6.298;2024-01-16T00:25:10;100773.81;;;18.51;82.47
42621;BME280;28252;53.336;-6.298;2024-01-16T00:25:42;100777.38;;;18.51;81.24
42621;BME280;28252;53.336;-6.298;2024-01-16T00:26:22;100777.38;;;18.51;81.82
42621;BME280;28252;53.336;-6.298;2024-01-16T00:26:53;100779.22;;;18.51;82.15
42621;BME280;28252;53.336;-6.298;2024-01-16T00:27:29;100771.13;;;18.51;81.64
42621;BME280;28252;53.336;-6.298;2024-01-16T00:28:02;100766.75;;;18.50;82.96
42621;BME280;28252;53.336;-6.298;2024-01-16T00:28:36;100768.59;;;18.49;82.17
42621;BME280;28252;53.336;-6.298;2024-01-16T00:29:07;100768.59;;;18.49;81.90
42621;BME280;28252;53.336;-6.298;2024-01-16T00:30:22;100769.44;;;18.50;83.01
42621;BME280;28252;53.336;-6.298;2024-01-16T00:30:55;100763.22;;;18.49;83.55
42621;BME280;28252;53.336;-6.298;2024-01-16T00:31:27;100762.34;;;18.48;82.04
42621;BME280;28252;53.336;-6.298;2024-01-16T00:32:03;100762.34;;;18.48;82.37
42621;BME280;28252;53.336;-6.298;2024-01-16T00:32:36;100756.09;;;18.48;81.73
42621;BME280;28252;53.336;-6.298;2024-01-16T00:33:07;100758.81;;;18.48;81.60
42621;BME280;28252;53.336;-6.298;2024-01-16T00:33:40;100760.66;;;18.47;83.08
42621;BME280;28252;53.336;-6.298;2024-01-16T00:34:14;100756.09;;;18.48;82.19
42621;BME280;28252;53.336;-6.298;2024-01-16T00:34:48;100753.56;;;18.46;83.44
42621;BME280;28252;53.336;-6.298;2024-01-16T00:35:21;100749.88;;;18.47;82.68
42621;BME280;28252;53.336;-6.298;2024-01-16T00:35:57;100749.88;;;18.47;80.67
42621;BME280;28252;53.336;-6.298;2024-01-16T00:36:30;100753.56;;;18.46;81.59
42621;BME280;28252;53.336;-6.298;2024-01-16T00:37:04;100739.41;;;18.44;80.57
42621;BME280;28252;53.336;-6.298;2024-01-16T00:37:38;100741.06;;;18.45;82.11
42621;BME280;28252;53.336;-6.298;2024-01-16T00:38:15;100746.47;;;18.45;82.40
42621;BME280;28252;53.336;-6.298;2024-01-16T00:38:48;100750.19;;;18.44;81.92
42621;BME280;28252;53.336;-6.298;2024-01-16T00:39:20;100746.81;;;18.42;82.32
42621;BME280;28252;53.336;-6.298;2024-01-16T00:39:59;100748.47;;;18.43;82.30
42621;BME280;28252;53.336;-6.298;2024-01-16T00:40:35;100744.78;;;18.44;82.04
42621;BME280;28252;53.336;-6.298;2024-01-16T00:41:09;100739.41;;;18.44;83.24
42621;BME280;28252;53.336;-6.298;2024-01-16T00:41:42;100737.69;;;18.43;81.29
42621;BME280;28252;53.336;-6.298;2024-01-16T00:42:13;100736.72;;;18.44;81.78
42621;BME280;28252;53.336;-6.298;2024-01-16T00:42:44;100731.31;;;18.44;82.25
42621;BME280;28252;53.336;-6.298;2024-01-16T00:43:15;100735.16;;;18.42;81.78
42621;BME280;28252;53.336;-6.298;2024-01-16T00:43:48;100728.94;;;18.41;82.09
42621;BME280;28252;53.336;-6.298;2024-01-16T00:44:19;100725.53;;;18.39;82.54
42621;BME280;28252;53.336;-6.298;2024-01-16T00:44:51;100718.13;;;18.41;81.91
42621;BME280;28252;53.336;-6.298;2024-01-16T00:45:27;100721.81;;;18.40;82.72
42621;BME280;28252;53.336;-6.298;2024-01-16T00:46:03;100714.75;;;18.39;82.48
42621;BME280;28252;53.336;-6.298;2024-01-16T00:46:34;100718.44;;;18.38;81.85
42621;BME280;28252;53.336;-6.298;2024-01-16T00:47:05;100714.06;;;18.37;81.98
42621;BME280;28252;53.336;-6.298;2024-01-16T00:47:36;100715.06;;;18.36;82.55
42621;BME280;28252;53.336;-6.298;2024-01-16T00:48:07;100727.56;;;18.37;82.06
42621;BME280;28252;53.336;-6.298;2024-01-16T00:48:43;100725.03;;;18.36;83.11
42621;BME280;28252;53.336;-6.298;2024-01-16T00:49:19;100723.00;;;18.38;82.49
42621;BME280;28252;53.336;-6.298;2024-01-16T00:49:53;100726.69;;;18.37;83.25
42621;BME280;28252;53.336;-6.298;2024-01-16T00:50:24;100734.63;;;18.38;82.53
42621;BME280;28252;53.336;-6.298;2024-01-16T00:51:00;100733.78;;;18.38;82.86
42621;BME280;28252;53.336;-6.298;2024-01-16T00:51:36;100739.34;;;18.36;82.91
42621;BME280;28252;53.336;-6.298;2024-01-16T00:52:12;100733.09;;;18.36;81.61
42621;BME280;28252;53.336;-6.298;2024-01-16T00:52:45;100732.41;;;18.34;82.56
42621;BME280;28252;53.336;-6.298;2024-01-16T00:53:19;100727.88;;;18.34;82.64
42621;BME280;28252;53.336;-6.298;2024-01-16T00:53:55;100734.94;;;18.35;82.38
42621;BME280;28252;53.336;-6.298;2024-01-16T00:54:26;100728.84;;;18.33;82.84
42621;BME280;28252;53.336;-6.298;2024-01-16T00:54:57;100732.41;;;18.34;83.04
42621;BME280;28252;53.336;-6.298;2024-01-16T00:55:30;100729.88;;;18.32;82.47
42621;BME280;28252;53.336;-6.298;2024-01-16T00:56:05;100723.78;;;18.30;81.72
42621;BME280;28252;53.336;-6.298;2024-01-16T00:56:42;100721.06;;;18.30;82.24
42621;BME280;28252;53.336;-6.298;2024-01-16T00:57:13;100719.41;;;18.29;82.00
42621;BME280;28252;53.336;-6.298;2024-01-16T00:57:48;100722.25;;;18.27;82.48
42621;BME280;28252;53.336;-6.298;2024-01-16T00:58:22;100717.69;;;18.28;82.19
42621;BME280;28252;53.336;-6.298;2024-01-16T00:58:54;100722.25;;;18.27;82.66
42621;BME280;28252;53.336;-6.298;2024-01-16T00:59:27;100725.94;;;18.26;82.50
42621;BME280;28252;53.336;-6.298;2024-01-16T00:59:59;100721.41;;;18.27;82.04
42621;BME280;28252;53.336;-6.298;2024-01-16T01:00:32;100718.88;;;18.25;82.08
42621;BME280;28252;53.336;-6.298;2024-01-16T01:01:12;100718.00;;;18.25;81.65
42621;BME280;28252;53.336;-6.298;2024-01-16T01:01:45;100718.00;;;18.25;81.93
42621;BME280;28252;53.336;-6.298;2024-01-16T01:02:19;100718.00;;;18.25;81.32
42621;BME280;28252;53.336;-6.298;2024-01-16T01:02:50;100724.28;;;18.25;82.13
42621;BME280;28252;53.336;-6.298;2024-01-16T01:03:21;100718.88;;;18.25;82.62
42621;BME280;28252;53.336;-6.298;2024-01-16T01:03:57;100712.63;;;18.25;81.17
42621;BME280;28252;53.336;-6.298;2024-01-16T01:04:28;100720.69;;;18.25;82.14
42621;BME280;28252;53.336;-6.298;2024-01-16T01:05:02;100719.03;;;18.24;80.57
42621;BME280;28252;53.336;-6.298;2024-01-16T01:05:35;100720.03;;;18.23;81.19
42621;BME280;28252;53.336;-6.298;2024-01-16T01:06:09;100727.13;;;18.24;82.11
42621;BME280;28252;53.336;-6.298;2024-01-16T01:06:43;100726.44;;;18.22;80.67
42621;BME280;28252;53.336;-6.298;2024-01-16T01:07:17;100720.84;;;18.23;79.95
42621;BME280;28252;53.336;-6.298;2024-01-16T01:07:48;100714.63;;;18.23;81.00
42621;BME280;28252;53.336;-6.298;2024-01-16T01:08:21;100725.41;;;18.23;81.03
42621;BME280;28252;53.336;-6.298;2024-01-16T01:08:54;100721.72;;;18.24;81.69
42621;BME280;28252;53.336;-6.298;2024-01-16T01:09:32;100724.41;;;18.24;82.00
42621;BME280;28252;53.336;-6.298;2024-01-16T01:10:06;100720.03;;;18.23;80.73
42621;BME280;28252;53.336;-6.298;2024-01-16T01:10:39;100721.72;;;18.24;80.76
42621;BME280;28252;53.336;-6.298;2024-01-16T01:11:13;100713.63;;;18.24;81.82
42621;BME280;28252;53.336;-6.298;2024-01-16T01:11:47;100719.88;;;18.24;83.63
42621;BME280;28252;53.336;-6.298;2024-01-16T01:12:26;100713.47;;;18.25;82.06
42621;BME280;28252;53.336;-6.298;2024-01-16T01:12:58;100723.41;;;18.25;80.62
42621;BME280;28252;53.336;-6.298;2024-01-16T01:13:29;100708.09;;;18.25;82.80
42621;BME280;28252;53.336;-6.298;2024-01-16T01:14:03;100715.31;;;18.25;81.58
42621;BME280;28252;53.336;-6.298;2024-01-16T01:14:39;100717.84;;;18.26;81.76
42621;BME280;28252;53.336;-6.298;2024-01-16T01:15:14;100716.19;;;18.25;81.03
42621;BME280;28252;53.336;-6.298;2024-01-16T01:16:34;100716.03;;;18.27;82.63
42621;BME280;28252;53.336;-6.298;2024-01-16T01:17:07;100720.56;;;18.26;81.21
42621;BME280;28252;53.336;-6.298;2024-01-16T01:17:41;100719.72;;;18.26;81.66
42621;BME280;28252;53.336;-6.298;2024-01-16T01:18:14;100716.88;;;18.27;80.51
42621;BME280;28252;53.336;-6.298;2024-01-16T01:18:48;100715.16;;;18.26;81.00
42621;BME280;28252;53.336;-6.298;2024-01-16T01:19:23;100716.88;;;18.27;80.89
42621;BME280;28252;53.336;-6.298;2024-01-16T01:19:58;100713.34;;;18.27;80.39
42621;BME280;28252;53.336;-6.298;2024-01-16T01:20:29;100710.28;;;18.30;82.28
42621;BME280;28252;53.336;-6.298;2024-01-16T01:21:07;100705.94;;;18.29;81.44
42621;BME280;28252;53.336;-6.298;2024-01-16T01:21:45;100711.47;;;18.27;80.67
42621;BME280;28252;53.336;-6.298;2024-01-16T01:22:16;100706.91;;;18.28;81.76
42621;BME280;28252;53.336;-6.298;2024-01-16T01:22:49;100704.91;;;18.30;80.57
42621;BME280;28252;53.336;-6.298;2024-01-16T01:23:24;100697.84;;;18.29;80.47
42621;BME280;28252;53.336;-6.298;2024-01-16T01:23:57;100704.91;;;18.30;80.78
42621;BME280;28252;53.336;-6.298;2024-01-16T01:24:34;100700.38;;;18.31;79.97
42621;BME280;28252;53.336;-6.298;2024-01-16T01:25:06;100701.38;;;18.29;80.56
42621;BME280;28252;53.336;-6.298;2024-01-16T01:25:39;100699.50;;;18.30;80.22
42621;BME280;28252;53.336;-6.298;2024-01-16T01:26:10;100700.38;;;18.31;79.69
42621;BME280;28252;53.336;-6.298;2024-01-16T01:26:44;100695.81;;;18.31;80.19
42621;BME280;28252;53.336;-6.298;2024-01-16T01:27:18;100697.53;;;18.32;81.06
42621;BME280;28252;53.336;-6.298;2024-01-16T01:27:51;100697.53;;;18.32;80.75
42621;BME280;28252;53.336;-6.298;2024-01-16T01:28:27;100697.53;;;18.32;80.99
42621;BME280;28252;53.336;-6.298;2024-01-16T01:28:58;100699.19;;;18.33;80.50
42621;BME280;28252;53.336;-6.298;2024-01-16T01:29:31;100692.81;;;18.34;80.76
42621;BME280;28252;53.336;-6.298;2024-01-16T01:30:05;100690.13;;;18.34;81.25
42621;BME280;28252;53.336;-6.298;2024-01-16T01:30:37;100692.81;;;18.34;80.70
42621;BME280;28252;53.336;-6.298;2024-01-16T01:31:10;100689.25;;;18.34;79.88
42621;BME280;28252;53.336;-6.298;2024-01-16T01:31:47;100683.69;;;18.35;80.19
42621;BME280;28252;53.336;-6.298;2024-01-16T01:32:23;100681.00;;;18.35;80.71
42621;BME280;28252;53.336;-6.298;2024-01-16T01:32:58;100678.47;;;18.34;79.55
42621;BME280;28252;53.336;-6.298;2024-01-16T01:33:34;100685.41;;;18.36;80.32
42621;BME280;28252;53.336;-6.298;2024-01-16T01:34:11;100679.34;;;18.34;79.98
42621;BME280;28252;53.336;-6.298;2024-01-16T01:34:47;100680.84;;;18.37;80.97
42621;BME280;28252;53.336;-6.298;2024-01-16T01:35:22;100674.63;;;18.36;80.73
42621;BME280;28252;53.336;-6.298;2024-01-16T01:35:55;100675.31;;;18.38;81.27
42621;BME280;28252;53.336;-6.298;2024-01-16T01:36:31;100673.63;;;18.37;79.59
42621;BME280;28252;53.336;-6.298;2024-01-16T01:37:02;100678.69;;;18.40;80.21
42621;BME280;28252;53.336;-6.298;2024-01-16T01:37:34;100673.28;;;18.40;80.81
42621;BME280;28252;53.336;-6.298;2024-01-16T01:38:10;100667.91;;;18.40;79.92
42621;BME280;28252;53.336;-6.298;2024-01-16T01:38:41;100667.91;;;18.40;79.59
42621;BME280;28252;53.336;-6.298;2024-01-16T01:40:07;100667.91;;;18.40;80.39
42621;BME280;28252;53.336;-6.298;2024-01-16T01:40:57;100672.28;;;18.41;81.15
42621;BME280;28252;53.336;-6.298;2024-01-16T01:41:33;100665.19;;;18.40;79.36
42621;BME280;28252;53.336;-6.298;2024-01-16T01:42:06;100667.91;;;18.40;79.56
42621;BME280;28252;53.336;-6.298;2024-01-16T01:42:42;100672.44;;;18.40;79.36
42621;BME280;28252;53.336;-6.298;2024-01-16T01:43:16;100663.38;;;18.41;80.72
42621;BME280;28252;53.336;-6.298;2024-01-16T01:43:47;100667.75;;;18.42;80.55
42621;BME280;28252;53.336;-6.298;2024-01-16T01:44:19;100664.38;;;18.40;79.77
42621;BME280;28252;53.336;-6.298;2024-01-16T01:44:52;100662.50;;;18.40;80.80
42621;BME280;28252;53.336;-6.298;2024-01-16T01:45:28;100666.22;;;18.39;79.57
42621;BME280;28252;53.336;-6.298;2024-01-16T01:46:20;100658.97;;;18.40;79.80
42621;BME280;28252;53.336;-6.298;2024-01-16T01:46:54;100661.66;;;18.40;79.69
42621;BME280;28252;53.336;-6.298;2024-01-16T01:47:30;100658.97;;;18.40;80.01
42621;BME280;28252;53.336;-6.298;2024-01-16T01:48:02;100657.09;;;18.40;79.81
42621;BME280;28252;53.336;-6.298;2024-01-16T01:48:38;100658.13;;;18.39;80.93
42621;BME280;28252;53.336;-6.298;2024-01-16T01:49:11;100650.03;;;18.39;79.19
42621;BME280;28252;53.336;-6.298;2024-01-16T01:49:43;100657.09;;;18.40;80.28
42621;BME280;28252;53.336;-6.298;2024-01-16T01:50:18;100652.59;;;18.41;80.10
42621;BME280;28252;53.336;-6.298;2024-01-16T01:50:54;100650.03;;;18.39;80.21
42621;BME280;28252;53.336;-6.298;2024-01-16T01:51:28;100653.41;;;18.41;79.93
42621;BME280;28252;53.336;-6.298;2024-01-16T01:52:03;100655.44;;;18.39;80.04
42621;BME280;28252;53.336;-6.298;2024-01-16T01:52:36;100650.88;;;18.40;79.81
42621;BME280;28252;53.336;-6.298;2024-01-16T01:53:14;100645.66;;;18.38;79.24
42621;BME280;28252;53.336;-6.298;2024-01-16T01:53:48;100646.47;;;18.39;80.19
42621;BME280;28252;53.336;-6.298;2024-01-16T01:54:20;100637.56;;;18.38;79.61
42621;BME280;28252;53.336;-6.298;2024-01-16T01:54:56;100637.56;;;18.38;81.54
42621;BME280;28252;53.336;-6.298;2024-01-16T01:55:32;100648.34;;;18.38;79.65
42621;BME280;28252;53.336;-6.298;2024-01-16T01:56:10;100644.66;;;18.39;81.25
42621;BME280;28252;53.336;-6.298;2024-01-16T01:56:44;100642.94;;;18.38;80.05
42621;BME280;28252;53.336;-6.298;2024-01-16T01:57:37;100642.94;;;18.38;79.92
42621;BME280;28252;53.336;-6.298;2024-01-16T01:58:10;100643.78;;;18.39;81.38
42621;BME280;28252;53.336;-6.298;2024-01-16T01:58:49;100636.72;;;18.38;80.55
42621;BME280;28252;53.336;-6.298;2024-01-16T01:59:26;100641.28;;;18.37;79.87
42621;BME280;28252;53.336;-6.298;2024-01-16T01:59:57;100635.88;;;18.37;80.25
42621;BME280;28252;53.336;-6.298;2024-01-16T02:00:32;100640.41;;;18.37;80.40
42621;BME280;28252;53.336;-6.298;2024-01-16T02:01:05;100642.94;;;18.38;80.48
42621;BME280;28252;53.336;-6.298;2024-01-16T02:01:41;100635.88;;;18.37;81.06
42621;BME280;28252;53.336;-6.298;2024-01-16T02:02:17;100633.19;;;18.37;79.99
42621;BME280;28252;53.336;-6.298;2024-01-16T02:02:49;100635.88;;;18.37;79.61
42621;BME280;28252;53.336;-6.298;2024-01-16T02:03:25;100630.50;;;18.37;81.70
42621;BME280;28252;53.336;-6.298;2024-01-16T02:03:58;100639.56;;;18.36;79.75
42621;BME280;28252;53.336;-6.298;2024-01-16T02:04:32;100633.19;;;18.37;82.25
42621;BME280;28252;53.336;-6.298;2024-01-16T02:05:04;100640.56;;;18.35;80.20
42621;BME280;28252;53.336;-6.298;2024-01-16T02:05:35;100637.88;;;18.35;81.14
42621;BME280;28252;53.336;-6.298;2024-01-16T02:06:10;100633.34;;;18.36;81.43
42621;BME280;28252;53.336;-6.298;2024-01-16T02:06:45;100637.88;;;18.35;80.60
42621;BME280;28252;53.336;-6.298;2024-01-16T02:07:22;100630.81;;;18.34;80.72
42621;BME280;28252;53.336;-6.298;2024-01-16T02:07:57;100637.19;;;18.33;80.32
42621;BME280;28252;53.336;-6.298;2024-01-16T02:08:31;100629.94;;;18.34;82.80
42621;BME280;28252;53.336;-6.298;2024-01-16T02:09:05;100634.50;;;18.33;79.98
42621;BME280;28252;53.336;-6.298;2024-01-16T02:09:38;100636.50;;;18.31;79.71
42621;BME280;28252;53.336;-6.298;2024-01-16T02:10:12;100635.66;;;18.31;80.43
42621;BME280;28252;53.336;-6.298;2024-01-16T02:10:43;100627.44;;;18.32;79.80
42621;BME280;28252;53.336;-6.298;2024-01-16T02:11:16;100631.94;;;18.32;80.60
42621;BME280;28252;53.336;-6.298;2024-01-16T02:11:52;100634.81;;;18.30;83.78
42621;BME280;28252;53.336;-6.298;2024-01-16T02:12:29;100629.41;;;18.30;80.88
42621;BME280;28252;53.336;-6.298;2024-01-16T02:13:02;100635.66;;;18.31;79.67
42621;BME280;28252;53.336;-6.298;2024-01-16T02:13:36;100632.09;;;18.30;81.02
42621;BME280;28252;53.336;-6.298;2024-01-16T02:14:12;100635.81;;;18.29;79.40
42621;BME280;28252;53.336;-6.298;2024-01-16T02:14:43;100638.53;;;18.29;82.65
42621;BME280;28252;53.336;-6.298;2024-01-16T02:15:17;100632.44;;;18.27;79.58
42621;BME280;28252;53.336;-6.298;2024-01-16T02:15:53;100639.50;;;18.28;81.79
42621;BME280;28252;53.336;-6.298;2024-01-16T02:16:26;100637.66;;;18.28;80.99
42621;BME280;28252;53.336;-6.298;2024-01-16T02:17:02;100639.66;;;18.26;81.86
42621;BME280;28252;53.336;-6.298;2024-01-16T02:17:33;100636.81;;;18.28;80.92
42621;BME280;28252;53.336;-6.298;2024-01-16T02:18:07;100635.16;;;18.27;82.67
42621;BME280;28252;53.336;-6.298;2024-01-16T02:18:38;100641.38;;;18.27;83.65
42621;BME280;28252;53.336;-6.298;2024-01-16T02:19:09;100631.44;;;18.28;83.11
42621;BME280;28252;53.336;-6.298;2024-01-16T02:19:40;100634.13;;;18.28;81.78
42621;BME280;28252;53.336;-6.298;2024-01-16T02:20:13;100631.44;;;18.28;80.48
42621;BME280;28252;53.336;-6.298;2024-01-16T02:20:45;100637.84;;;18.27;82.80
42621;BME280;28252;53.336;-6.298;2024-01-16T02:21:17;100633.13;;;18.29;81.18
42621;BME280;28252;53.336;-6.298;2024-01-16T02:21:49;100630.44;;;18.29;81.29
42621;BME280;28252;53.336;-6.298;2024-01-16T02:22:25;100633.13;;;18.29;81.45
42621;BME280;28252;53.336;-6.298;2024-01-16T02:23:03;100632.25;;;18.28;82.16
42621;BME280;28252;53.336;-6.298;2024-01-16T02:23:36;100627.06;;;18.27;80.08
42621;BME280;28252;53.336;-6.298;2024-01-16T02:24:10;100630.75;;;18.26;82.29
42621;BME280;28252;53.336;-6.298;2024-01-16T02:24:46;100632.59;;;18.25;82.02
42621;BME280;28252;53.336;-6.298;2024-01-16T02:25:17;100629.03;;;18.25;81.37
42621;BME280;28252;53.336;-6.298;2024-01-16T02:25:48;100618.41;;;18.23;80.10
42621;BME280;28252;53.336;-6.298;2024-01-16T02:26:24;100626.50;;;18.23;80.74
42621;BME280;28252;53.336;-6.298;2024-01-16T02:26:58;100624.00;;;18.22;81.41
42621;BME280;28252;53.336;-6.298;2024-01-16T02:27:32;100630.06;;;18.24;81.53
42621;BME280;28252;53.336;-6.298;2024-01-16T02:28:05;100624.00;;;18.22;81.19
42621;BME280;28252;53.336;-6.298;2024-01-16T02:28:36;100626.69;;;18.22;82.08
42621;BME280;28252;53.336;-6.298;2024-01-16T02:29:08;100620.44;;;18.21;80.02
42621;BME280;28252;53.336;-6.298;2024-01-16T02:29:40;100613.38;;;18.20;79.85
42621;BME280;28252;53.336;-6.298;2024-01-16T02:30:14;100619.59;;;18.21;80.06
42621;BME280;28252;53.336;-6.298;2024-01-16T02:30:45;100617.06;;;18.19;80.92
42621;BME280;28252;53.336;-6.298;2024-01-16T02:31:20;100619.91;;;18.18;80.72
42621;BME280;28252;53.336;-6.298;2024-01-16T02:31:56;100613.69;;;18.17;80.47
42621;BME280;28252;53.336;-6.298;2024-01-16T02:32:28;100610.16;;;18.17;80.37
42621;BME280;28252;53.336;-6.298;2024-01-16T02:33:01;100613.84;;;18.16;80.11
42621;BME280;28252;53.336;-6.298;2024-01-16T02:33:35;100611.13;;;18.16;80.37
42621;BME280;28252;53.336;-6.298;2024-01-16T02:34:09;100614.66;;;18.16;79.69
42621;BME280;28252;53.336;-6.298;2024-01-16T02:35:21;100609.44;;;18.15;81.96
42621;BME280;28252;53.336;-6.298;2024-01-16T02:35:55;100602.38;;;18.14;79.72
42621;BME280;28252;53.336;-6.298;2024-01-16T02:36:27;100606.06;;;18.13;79.42
42621;BME280;28252;53.336;-6.298;2024-01-16T02:37:05;100611.44;;;18.13;80.35
42621;BME280;28252;53.336;-6.298;2024-01-16T02:37:36;100601.66;;;18.11;79.54
42621;BME280;28252;53.336;-6.298;2024-01-16T02:38:14;100603.38;;;18.13;79.86
42621;BME280;28252;53.336;-6.298;2024-01-16T02:38:46;100598.97;;;18.11;80.53
42621;BME280;28252;53.336;-6.298;2024-01-16T02:39:17;100601.50;;;18.13;80.45
42621;BME280;28252;53.336;-6.298;2024-01-16T02:39:48;100597.13;;;18.12;78.97
42621;BME280;28252;53.336;-6.298;2024-01-16T02:40:22;100597.97;;;18.13;80.27
42621;BME280;28252;53.336;-6.298;2024-01-16T02:40:53;100593.56;;;18.11;79.14
42621;BME280;28252;53.336;-6.298;2024-01-16T02:41:24;100598.97;;;18.11;80.11
42621;BME280;28252;53.336;-6.298;2024-01-16T02:41:58;100605.22;;;18.12;80.12
42621;BME280;28252;53.336;-6.298;2024-01-16T02:42:30;100604.34;;;18.11;79.19
42621;BME280;28252;53.336;-6.298;2024-01-16T02:43:04;100599.84;;;18.12;80.59
42621;BME280;28252;53.336;-6.298;2024-01-16T02:43:39;100601.66;;;18.11;80.33
42621;BME280;28252;53.336;-6.298;2024-01-16T02:44:12;100606.06;;;18.13;80.36
42621;BME280;28252;53.336;-6.298;2024-01-16T02:44:48;100600.66;;;18.13;80.26
42621;BME280;28252;53.336;-6.298;2024-01-16T02:45:22;100602.38;;;18.14;79.81
42621;BME280;28252;53.336;-6.298;2024-01-16T02:45:53;100602.38;;;18.14;79.06
42621;BME280;28252;53.336;-6.298;2024-01-16T02:46:25;100596.13;;;18.13;80.60
42621;BME280;28252;53.336;-6.298;2024-01-16T02:46:58;100596.13;;;18.13;79.49
42621;BME280;28252;53.336;-6.298;2024-01-16T02:47:29;100604.03;;;18.15;79.33
42621;BME280;28252;53.336;-6.298;2024-01-16T02:48:05;100593.41;;;18.13;79.42
42621;BME280;28252;53.336;-6.298;2024-01-16T02:48:41;100592.44;;;18.14;78.47
42621;BME280;28252;53.336;-6.298;2024-01-16T02:50:29;100594.97;;;18.16;79.04
42621;BME280;28252;53.336;-6.298;2024-01-16T02:51:02;100595.97;;;18.15;78.86
42621;BME280;28252;53.336;-6.298;2024-01-16T02:51:39;100594.97;;;18.16;79.47
42621;BME280;28252;53.336;-6.298;2024-01-16T02:52:10;100592.28;;;18.16;78.84
42621;BME280;28252;53.336;-6.298;2024-01-16T02:52:44;100595.81;;;18.16;79.84
42621;BME280;28252;53.336;-6.298;2024-01-16T02:53:15;100596.66;;;18.17;80.76
42621;BME280;28252;53.336;-6.298;2024-01-16T02:53:51;100594.97;;;18.16;78.24
42621;BME280;28252;53.336;-6.298;2024-01-16T02:54:25;100591.28;;;18.17;78.99
42621;BME280;28252;53.336;-6.298;2024-01-16T02:55:00;100591.28;;;18.17;79.45
42621;BME280;28252;53.336;-6.298;2024-01-16T02:55:36;100591.97;;;18.19;78.68
42621;BME280;28252;53.336;-6.298;2024-01-16T02:56:12;100585.88;;;18.17;78.64
42621;BME280;28252;53.336;-6.298;2024-01-16T02:56:45;100590.25;;;18.18;78.41
42621;BME280;28252;53.336;-6.298;2024-01-16T02:57:21;100588.41;;;18.18;78.07
42621;BME280;28252;53.336;-6.298;2024-01-16T02:57:52;100589.25;;;18.19;78.77
42621;BME280;28252;53.336;-6.298;2024-01-16T02:58:24;100588.25;;;18.20;79.13
42621;BME280;28252;53.336;-6.298;2024-01-16T02:58:56;100585.53;;;18.20;77.52
42621;BME280;28252;53.336;-6.298;2024-01-16T02:59:27;100584.56;;;18.21;80.04